Weyers Cave, VA

2:44 PM EST on December 10, 2016 (GMT -0500)
Shenandoah Valley Regional

Weather History for KSHD - February, 2013

Change the Weather History Date:

Tuesday, February 5, 2013

  Actual Average Record
Temperature  
Mean Temperature 42 °F -  
Max Temperature 53 °F 46 °F 75 °F (2008)
Min Temperature 31 °F 26 °F 10 °F (2002)
Degree Days  
Heating Degree Days 24    
Moisture  
Dew Point 30 °F    
Average Humidity 61    
Maximum Humidity 86    
Minimum Humidity 44    
Precipitation  
Precipitation 0.00 in - - ()
Sea Level Pressure  
Sea Level Pressure 29.86 in    
Wind  
Wind Speed 8 mph (SSW)    
Max Wind Speed 18 mph    
Max Gust Speed 23 mph    
Visibility 10 miles    
Events      
Averages and records for this station are not official NWS values.
T = Trace of Precipitation, MM = Missing Value Source: NWS Daily Summary

Daily Weather History Graph

Daily Weather History Graph

Search for Another Location

Airport or City:

Trip Planner

Search our weather history database for the weather conditions in past years. The results will help you decide how hot, cold, wet, or windy it might be!

Date:

Astronomy

Feb. 05, 2013 Rise Set
Actual Time 7:16 AM EST 5:43 PM EST
Civil Twilight 6:49 AM EST 6:10 PM EST
Nautical Twilight 6:17 AM EST 6:42 PM EST
Astronomical Twilight 5:46 AM EST 7:13 PM EST
Moon 2:55 AM EST (2/5) 1:00 PM EST (2/5)
Length of Visible Light 11h 21m
Length of Day
10h 26m
Waning Crescent, 27% of the Moon is Illuminated
Feb 5
Waning Crescent
Feb 10
New
Feb 17
First Quarter
Feb 25
Full
Mar 4
Last Quarter

Hourly Weather History & Observations

Time (EST) Temp. Windchill Dew Point Humidity Pressure Visibility Wind Dir Wind Speed Gust Speed Precip Events Conditions
12:15 AM 37.6 °F 30.5 °F 26.2 °F 64% 29.87 in 10.0 mi SSW 10.4 mph - N/A   Scattered Clouds
12:35 AM 37.9 °F 33.5 °F 25.3 °F 60% 29.87 in 10.0 mi SSW 5.8 mph - N/A   Scattered Clouds
12:55 AM 38.7 °F 34.3 °F 24.8 °F 58% 29.86 in 10.0 mi South 5.8 mph - N/A   Overcast
1:15 AM 38.8 °F 32.6 °F 26.2 °F 61% 29.86 in 10.0 mi SSW 9.2 mph - N/A   Mostly Cloudy
1:35 AM 40.5 °F 33.2 °F 28.6 °F 63% 29.86 in 10.0 mi SW 12.7 mph 16.1 mph N/A   Scattered Clouds
1:55 AM 42.6 °F 36.3 °F 29.8 °F 61% 29.86 in 10.0 mi SSW 11.5 mph 17.3 mph N/A   Mostly Cloudy
2:15 AM 42.8 °F 36.6 °F 30.2 °F 61% 29.85 in 10.0 mi SW 11.5 mph 17.3 mph N/A   Overcast
2:35 AM 42.4 °F 37.0 °F 30.6 °F 63% 29.85 in 10.0 mi SW 9.2 mph - N/A   Overcast
2:55 AM 42.1 °F 36.6 °F 30.0 °F 62% 29.84 in 10.0 mi SSW 9.2 mph - N/A   Overcast
3:15 AM 41.4 °F 36.8 °F 29.3 °F 62% 29.84 in 10.0 mi SSW 6.9 mph - N/A   Mostly Cloudy
3:35 AM 40.3 °F 37.1 °F 28.8 °F 63% 29.84 in 10.0 mi South 4.6 mph - N/A   Mostly Cloudy
3:55 AM 39.9 °F 36.7 °F 28.9 °F 65% 29.84 in 10.0 mi SSW 4.6 mph - N/A   Overcast
4:15 AM 41.5 °F 37.1 °F 29.7 °F 63% 29.84 in 10.0 mi SSW 6.9 mph - N/A   Overcast
4:35 AM 42.3 °F 37.9 °F 29.5 °F 61% 29.83 in 10.0 mi South 6.9 mph - N/A   Overcast
4:55 AM 41.0 °F 36.4 °F 29.3 °F 63% 29.83 in 10.0 mi SSW 6.9 mph - N/A   Overcast
5:15 AM 39.7 °F 34.9 °F 29.3 °F 66% 29.83 in 10.0 mi SW 6.9 mph - N/A   Mostly Cloudy
5:35 AM 41.0 °F 36.4 °F 29.8 °F 64% 29.84 in 10.0 mi SSW 6.9 mph - N/A   Mostly Cloudy
5:55 AM 42.1 °F 38.4 °F 29.8 °F 62% 29.84 in 10.0 mi SSW 5.8 mph - N/A   Overcast
6:15 AM 42.1 °F 38.4 °F 29.3 °F 61% 29.83 in 10.0 mi SSW 5.8 mph - N/A   Overcast
6:35 AM 41.9 °F 38.2 °F 28.9 °F 60% 29.84 in 10.0 mi SW 5.8 mph - N/A   Overcast
6:55 AM 42.1 °F 37.7 °F 29.1 °F 60% 29.84 in 10.0 mi SSW 6.9 mph - N/A   Overcast
7:15 AM 42.1 °F 38.4 °F 28.4 °F 58% 29.85 in 10.0 mi SSW 5.8 mph - N/A   Overcast
7:35 AM 41.5 °F 37.1 °F 28.9 °F 61% 29.85 in 10.0 mi SSW 6.9 mph - N/A   Overcast
7:55 AM 41.9 °F 38.2 °F 29.3 °F 61% 29.86 in 10.0 mi SSW 5.8 mph - N/A   Overcast
8:15 AM 43.0 °F 40.3 °F 29.3 °F 59% 29.87 in 10.0 mi SSW 4.6 mph - N/A   Overcast
8:35 AM 43.7 °F 41.1 °F 29.5 °F 57% 29.88 in 10.0 mi South 4.6 mph - N/A   Overcast
8:55 AM 44.1 °F 41.5 °F 29.1 °F 56% 29.88 in 10.0 mi SSE 4.6 mph - N/A   Overcast
9:15 AM 44.8 °F 41.6 °F 29.3 °F 55% 29.88 in 10.0 mi South 5.8 mph - N/A   Overcast
10:15 AM 48.4 °F - 29.8 °F 49% 29.88 in 10.0 mi South 8.1 mph - N/A   Overcast
10:35 AM 49.3 °F - 30.7 °F 49% 29.89 in 10.0 mi South 10.4 mph - N/A   Overcast
10:55 AM 49.6 °F - 31.8 °F 50% 29.89 in 10.0 mi SW 11.5 mph 16.1 mph N/A   Overcast
11:15 AM 50.0 °F - 32.0 °F 50% 29.88 in 10.0 mi SW 15.0 mph - N/A   Overcast
11:35 AM 50.0 °F - 31.8 °F 50% 29.88 in 10.0 mi SW 11.5 mph 19.6 mph N/A   Overcast
11:55 AM 52.9 °F - 31.5 °F 44% 29.88 in 10.0 mi SW 16.1 mph 20.7 mph N/A   Overcast
12:15 PM 52.5 °F - 31.6 °F 45% 29.86 in 10.0 mi SW 18.4 mph 23.0 mph N/A   Mostly Cloudy
12:35 PM 51.3 °F - 31.8 °F 47% 29.85 in 10.0 mi SW 13.8 mph 18.4 mph N/A   Mostly Cloudy
12:55 PM 52.0 °F - 31.8 °F 46% 29.85 in 10.0 mi SW 12.7 mph 19.6 mph N/A   Overcast
1:15 PM 51.4 °F - 32.0 °F 47% 29.84 in 10.0 mi SW 16.1 mph - N/A   Overcast
1:35 PM 50.2 °F - 32.0 °F 50% 29.84 in 10.0 mi SW 12.7 mph - N/A   Overcast
1:55 PM 50.2 °F - 32.0 °F 50% 29.83 in 10.0 mi SW 18.4 mph - N/A   Overcast
2:15 PM 49.3 °F - 32.2 °F 52% 29.84 in 10.0 mi SW 16.1 mph 20.7 mph N/A   Overcast
2:35 PM 48.7 °F - 32.0 °F 52% 29.84 in 10.0 mi WSW 12.7 mph 23.0 mph N/A   Overcast
2:55 PM 49.6 °F - 32.2 °F 51% 29.84 in 10.0 mi SW 16.1 mph 20.7 mph N/A   Overcast
3:15 PM 49.1 °F - 32.2 °F 52% 29.84 in 10.0 mi SW 16.1 mph 23.0 mph N/A   Overcast
3:35 PM 48.7 °F - 32.4 °F 53% 29.85 in 10.0 mi SW 11.5 mph 19.6 mph N/A   Overcast
3:55 PM 49.3 °F - 32.4 °F 52% 29.84 in 10.0 mi SW 12.7 mph 20.7 mph N/A   Overcast
4:15 PM 49.1 °F - 32.2 °F 52% 29.85 in 10.0 mi SW 13.8 mph 17.3 mph N/A   Overcast
4:35 PM 48.9 °F - 32.0 °F 52% 29.85 in 10.0 mi SW 9.2 mph - N/A   Overcast
4:55 PM 48.6 °F - 31.6 °F 52% 29.85 in 10.0 mi WSW 5.8 mph - N/A   Overcast
5:15 PM 48.2 °F - 31.1 °F 52% 29.85 in 10.0 mi WSW 9.2 mph - N/A   Mostly Cloudy
5:35 PM 47.7 °F - 31.1 °F 53% 29.86 in 10.0 mi SW 6.9 mph - N/A   Mostly Cloudy
6:15 PM 45.3 °F 43.0 °F 30.7 °F 57% 29.86 in 10.0 mi SW 4.6 mph - N/A   Scattered Clouds
6:35 PM 43.9 °F 41.3 °F 30.7 °F 60% 29.86 in 10.0 mi South 4.6 mph - N/A   Clear
6:55 PM 42.4 °F 40.7 °F 30.0 °F 61% 29.87 in 10.0 mi SW 3.5 mph - N/A   Clear
7:35 PM 39.7 °F 37.6 °F 29.8 °F 68% 29.88 in 10.0 mi SSW 3.5 mph - N/A   Clear
7:55 PM 37.9 °F 35.5 °F 29.5 °F 72% 29.89 in 10.0 mi SSW 3.5 mph - N/A   Clear
8:15 PM 38.7 °F 36.3 °F 29.7 °F 70% 29.88 in 10.0 mi South 3.5 mph - N/A   Clear
8:35 PM 39.0 °F - 29.8 °F 70% 29.88 in 10.0 mi Calm Calm - N/A   Clear
8:55 PM 35.4 °F - 28.8 °F 77% 29.89 in 10.0 mi Calm Calm - N/A   Clear
9:15 PM 33.1 °F - 28.4 °F 83% 29.89 in 10.0 mi Calm Calm - N/A   Clear
9:35 PM 34.3 °F - 29.3 °F 82% 29.90 in 10.0 mi Calm Calm - N/A   Clear
9:55 PM 34.2 °F - 28.8 °F 81% 29.90 in 10.0 mi Calm Calm - N/A   Clear
10:15 PM 32.5 °F - 28.2 °F 84% 29.91 in 10.0 mi Calm Calm - N/A   Clear
10:35 PM 33.3 °F - 28.4 °F 82% 29.91 in 10.0 mi Calm Calm - N/A   Mostly Cloudy
10:55 PM 31.1 °F - 26.6 °F 83% 29.91 in 10.0 mi Calm Calm - N/A   Mostly Cloudy
11:15 PM 31.1 °F - 26.1 °F 82% 29.91 in 10.0 mi Calm Calm - N/A   Scattered Clouds
11:35 PM 31.5 °F - 27.7 °F 86% 29.91 in 10.0 mi Calm Calm - N/A   Mostly Cloudy
11:55 PM 31.5 °F - 26.8 °F 83% 29.91 in 10.0 mi Calm Calm - N/A   Mostly Cloudy